Broadbent, OR (97414)

4:47 PM PDT on September 28, 2016 (GMT -0700)
Bridge | | Change Station

Elev 722 ft 43.00 °N, 124.02 °W | Updated 8 seconds ago

Scattered Clouds
Scattered Clouds
66.4 °F
Feels Like 66.4 °F
N
0.0
Wind Variable Wind from SE
Gusts 0.0 mph

Today
High -- | Low -- °F
--% Chance of Precip.
Yesterday
High -- | Low -- °F
Precip. -- in
Pressure 30.02 in
Visibility 10.0 miles
Clouds Scattered Clouds 500 ft
Dew Point 49 °F
Humidity 54%
Rainfall 0.00 in
Snow Depth Not available.
7:11 AM 7:01 PM
Waning Crescent, 4% visible
METAR KOTH 282335Z 36020G29KT 10SM SCT005 15/12 A3002 RMK AO1
Pressure 30.02 in
Visibility 10.0 miles
Clouds Scattered Clouds 500 ft
Dew Point 49 °F
Humidity 54%
Rainfall 0.00 in
Snow Depth Not available.
7:11 AM 7:01 PM
Waning Crescent, 4% visible
METAR KOTH 282335Z 36020G29KT 10SM SCT005 15/12 A3002 RMK AO1

10-Day Weather Forecast

Almanac

Astronomy

Sep. 28, 2016 Rise Set
Actual Time
Civil Twilight
Nautical Twilight
Astronomical Twilight
Moon
Length of Visible Light
Length of Day
Tomorrow will be .
, % of the Moon is Illuminated

Today's Extremes

State Highs State Lows

Community

WunderPhotos

Upload Photos

1,942,354 photos uploaded!

WunderBlog® & News

Nearby

Air Quality

  Air Quality AQ Index Pollutant
Not available.

Snow Depth

Station Depth Elevation

Earthquake Activity

City Distance Mag. Time & Date
Minimum magnitude displayed is 2.5.

Coastal Water Temperatures

Place Temperature

Stations

Nearby Weather Stations

Station Location Temp. Windchill Dew Point Humidity Wind Precip. Elev Updated Type
                   

Watches & Warnings

There are currently no watches in effect.